Kappa, Illinois
Current Conditions -  °F | °C
As of 10:56 AM on Thursday 30 Oct 2014 (Local Time) from KBMI Reporting Station
Scattered Clouds Scattered Clouds  
Wind Chill: 43°   Ceiling: Unl
Heat Index: 48°   Visibility: 10mi
Dew Point: 38°   Wind: 12mph
Humidity: 69%   Direction: 190°S
Pressure: 30.14"   Gusts: NA
Location:  40.7564°N, 89.0023°W
Report Text: KBMI 301556Z 19010KT 10SM FEW085 SCT110 09/03 A3014 RMK AO2 T00880033 SLP215
Loading
Personal Weather Stations






























Interactive Weather Map
Tropical Storm Tracking
New forecast layout! Learn more

10-Day Weather Forecast

Advertisements
Track Severe Weather on mobile